<?xml version="1.0" encoding="UTF-8" standalone="no" ?>
<gpx xmlns="http://www.topografix.com/GPX/1/1" xmlns:xsi="http://www.w3.org/2001/XMLSchema-instance" xsi:schemaLocation="http://www.topografix.com/GPX/1/1 http://www.topografix.com/GPX/1/1/gpx.xsd" version="1.1" creator="VisuGPX - https://www.visugpx.com">
  <metadata>
    <name>Haux (boucle 3)</name>
    <desc><![CDATA[Randonnée VTT]]></desc>
  </metadata>
  <trk>
    <name><![CDATA[haux 3]]></name>
    <trkseg>
      <trkpt lat="44.7338" lon="-0.36183">
        <ele>87</ele>
        <time>2010-05-29T15:27:18Z</time>
      </trkpt>
      <trkpt lat="44.73428" lon="-0.36599">
        <ele>80</ele>
        <time>2010-05-29T15:27:21Z</time>
      </trkpt>
      <trkpt lat="44.73425" lon="-0.36706">
        <ele>77</ele>
        <time>2010-05-29T15:27:24Z</time>
      </trkpt>
      <trkpt lat="44.73395" lon="-0.36749">
        <ele>76</ele>
        <time>2010-05-29T15:27:27Z</time>
      </trkpt>
      <trkpt lat="44.73352" lon="-0.36838">
        <ele>74</ele>
        <time>2010-05-29T15:27:29Z</time>
      </trkpt>
      <trkpt lat="44.73346" lon="-0.36911">
        <ele>70</ele>
        <time>2010-05-29T15:27:31Z</time>
      </trkpt>
      <trkpt lat="44.73281" lon="-0.37081">
        <ele>53</ele>
        <time>2010-05-29T15:27:33Z</time>
      </trkpt>
      <trkpt lat="44.73229" lon="-0.37135">
        <ele>45</ele>
        <time>2010-05-29T15:27:35Z</time>
      </trkpt>
      <trkpt lat="44.73221" lon="-0.37144">
        <ele>43</ele>
        <time>2010-05-29T15:27:36Z</time>
      </trkpt>
      <trkpt lat="44.73199" lon="-0.37166">
        <ele>38</ele>
        <time>2010-05-29T15:27:40Z</time>
      </trkpt>
      <trkpt lat="44.73188" lon="-0.37173">
        <ele>37</ele>
        <time>2010-05-29T15:27:42Z</time>
      </trkpt>
      <trkpt lat="44.7318" lon="-0.37181">
        <ele>36</ele>
        <time>2010-05-29T15:27:45Z</time>
      </trkpt>
      <trkpt lat="44.73169" lon="-0.37186">
        <ele>36</ele>
        <time>2010-05-29T15:27:49Z</time>
      </trkpt>
      <trkpt lat="44.73158" lon="-0.37188">
        <ele>36</ele>
        <time>2010-05-29T15:27:55Z</time>
      </trkpt>
      <trkpt lat="44.73149" lon="-0.37191">
        <ele>37</ele>
        <time>2010-05-29T15:28:01Z</time>
      </trkpt>
      <trkpt lat="44.73138" lon="-0.37197">
        <ele>38</ele>
        <time>2010-05-29T15:28:07Z</time>
      </trkpt>
      <trkpt lat="44.73133" lon="-0.37212">
        <ele>39</ele>
        <time>2010-05-29T15:28:12Z</time>
      </trkpt>
      <trkpt lat="44.73129" lon="-0.37224">
        <ele>40</ele>
        <time>2010-05-29T15:28:17Z</time>
      </trkpt>
      <trkpt lat="44.73122" lon="-0.37234">
        <ele>42</ele>
        <time>2010-05-29T15:28:22Z</time>
      </trkpt>
      <trkpt lat="44.73114" lon="-0.37243">
        <ele>44</ele>
        <time>2010-05-29T15:28:28Z</time>
      </trkpt>
      <trkpt lat="44.73104" lon="-0.37243">
        <ele>45</ele>
        <time>2010-05-29T15:28:35Z</time>
      </trkpt>
      <trkpt lat="44.73094" lon="-0.37248">
        <ele>47</ele>
        <time>2010-05-29T15:28:41Z</time>
      </trkpt>
      <trkpt lat="44.73083" lon="-0.37248">
        <ele>48</ele>
        <time>2010-05-29T15:28:47Z</time>
      </trkpt>
      <trkpt lat="44.73073" lon="-0.3725">
        <ele>49</ele>
        <time>2010-05-29T15:28:51Z</time>
      </trkpt>
      <trkpt lat="44.73064" lon="-0.37252">
        <ele>49</ele>
        <time>2010-05-29T15:28:56Z</time>
      </trkpt>
      <trkpt lat="44.73053" lon="-0.37256">
        <ele>50</ele>
        <time>2010-05-29T15:29:01Z</time>
      </trkpt>
      <trkpt lat="44.73044" lon="-0.37261">
        <ele>51</ele>
        <time>2010-05-29T15:29:06Z</time>
      </trkpt>
      <trkpt lat="44.73034" lon="-0.37266">
        <ele>52</ele>
        <time>2010-05-29T15:29:11Z</time>
      </trkpt>
      <trkpt lat="44.73025" lon="-0.37271">
        <ele>53</ele>
        <time>2010-05-29T15:29:16Z</time>
      </trkpt>
      <trkpt lat="44.73016" lon="-0.37276">
        <ele>53</ele>
        <time>2010-05-29T15:29:20Z</time>
      </trkpt>
      <trkpt lat="44.73005" lon="-0.37282">
        <ele>54</ele>
        <time>2010-05-29T15:29:25Z</time>
      </trkpt>
      <trkpt lat="44.72994" lon="-0.37288">
        <ele>55</ele>
        <time>2010-05-29T15:29:30Z</time>
      </trkpt>
      <trkpt lat="44.72984" lon="-0.37295">
        <ele>56</ele>
        <time>2010-05-29T15:29:35Z</time>
      </trkpt>
      <trkpt lat="44.72975" lon="-0.37303">
        <ele>57</ele>
        <time>2010-05-29T15:29:40Z</time>
      </trkpt>
      <trkpt lat="44.72966" lon="-0.37311">
        <ele>58</ele>
        <time>2010-05-29T15:29:44Z</time>
      </trkpt>
      <trkpt lat="44.72958" lon="-0.37321">
        <ele>59</ele>
        <time>2010-05-29T15:29:48Z</time>
      </trkpt>
      <trkpt lat="44.7295" lon="-0.3733">
        <ele>60</ele>
        <time>2010-05-29T15:29:52Z</time>
      </trkpt>
      <trkpt lat="44.72942" lon="-0.37339">
        <ele>62</ele>
        <time>2010-05-29T15:29:56Z</time>
      </trkpt>
      <trkpt lat="44.72934" lon="-0.37345">
        <ele>63</ele>
        <time>2010-05-29T15:30:00Z</time>
      </trkpt>
      <trkpt lat="44.72925" lon="-0.37352">
        <ele>64</ele>
        <time>2010-05-29T15:30:04Z</time>
      </trkpt>
      <trkpt lat="44.72916" lon="-0.37358">
        <ele>65</ele>
        <time>2010-05-29T15:30:08Z</time>
      </trkpt>
      <trkpt lat="44.72908" lon="-0.37365">
        <ele>66</ele>
        <time>2010-05-29T15:30:12Z</time>
      </trkpt>
      <trkpt lat="44.72898" lon="-0.37372">
        <ele>67</ele>
        <time>2010-05-29T15:30:17Z</time>
      </trkpt>
      <trkpt lat="44.72889" lon="-0.37379">
        <ele>68</ele>
        <time>2010-05-29T15:30:21Z</time>
      </trkpt>
      <trkpt lat="44.7288" lon="-0.37387">
        <ele>68</ele>
        <time>2010-05-29T15:30:25Z</time>
      </trkpt>
      <trkpt lat="44.72873" lon="-0.37395">
        <ele>69</ele>
        <time>2010-05-29T15:30:29Z</time>
      </trkpt>
      <trkpt lat="44.72864" lon="-0.37404">
        <ele>70</ele>
        <time>2010-05-29T15:30:33Z</time>
      </trkpt>
      <trkpt lat="44.72856" lon="-0.37412">
        <ele>70</ele>
        <time>2010-05-29T15:30:37Z</time>
      </trkpt>
      <trkpt lat="44.72848" lon="-0.3742">
        <ele>71</ele>
        <time>2010-05-29T15:30:41Z</time>
      </trkpt>
      <trkpt lat="44.72841" lon="-0.3743">
        <ele>72</ele>
        <time>2010-05-29T15:30:45Z</time>
      </trkpt>
      <trkpt lat="44.72833" lon="-0.37438">
        <ele>72</ele>
        <time>2010-05-29T15:30:49Z</time>
      </trkpt>
      <trkpt lat="44.72826" lon="-0.37448">
        <ele>73</ele>
        <time>2010-05-29T15:30:54Z</time>
      </trkpt>
      <trkpt lat="44.72819" lon="-0.3746">
        <ele>74</ele>
        <time>2010-05-29T15:31:00Z</time>
      </trkpt>
      <trkpt lat="44.72811" lon="-0.37468">
        <ele>75</ele>
        <time>2010-05-29T15:31:04Z</time>
      </trkpt>
      <trkpt lat="44.72804" lon="-0.37476">
        <ele>76</ele>
        <time>2010-05-29T15:31:08Z</time>
      </trkpt>
      <trkpt lat="44.72794" lon="-0.37484">
        <ele>77</ele>
        <time>2010-05-29T15:31:13Z</time>
      </trkpt>
      <trkpt lat="44.72786" lon="-0.37492">
        <ele>78</ele>
        <time>2010-05-29T15:31:17Z</time>
      </trkpt>
      <trkpt lat="44.72777" lon="-0.37499">
        <ele>79</ele>
        <time>2010-05-29T15:31:21Z</time>
      </trkpt>
      <trkpt lat="44.72768" lon="-0.37506">
        <ele>79</ele>
        <time>2010-05-29T15:31:25Z</time>
      </trkpt>
      <trkpt lat="44.72758" lon="-0.37512">
        <ele>79</ele>
        <time>2010-05-29T15:31:29Z</time>
      </trkpt>
      <trkpt lat="44.72747" lon="-0.37519">
        <ele>80</ele>
        <time>2010-05-29T15:31:33Z</time>
      </trkpt>
      <trkpt lat="44.72736" lon="-0.3753">
        <ele>80</ele>
        <time>2010-05-29T15:31:37Z</time>
      </trkpt>
      <trkpt lat="44.72728" lon="-0.37542">
        <ele>80</ele>
        <time>2010-05-29T15:31:40Z</time>
      </trkpt>
      <trkpt lat="44.72718" lon="-0.37548">
        <ele>79</ele>
        <time>2010-05-29T15:31:43Z</time>
      </trkpt>
      <trkpt lat="44.72704" lon="-0.37544">
        <ele>79</ele>
        <time>2010-05-29T15:31:46Z</time>
      </trkpt>
      <trkpt lat="44.72695" lon="-0.37542">
        <ele>79</ele>
        <time>2010-05-29T15:31:48Z</time>
      </trkpt>
      <trkpt lat="44.72681" lon="-0.37542">
        <ele>79</ele>
        <time>2010-05-29T15:31:51Z</time>
      </trkpt>
      <trkpt lat="44.72672" lon="-0.37542">
        <ele>79</ele>
        <time>2010-05-29T15:31:53Z</time>
      </trkpt>
      <trkpt lat="44.72662" lon="-0.37542">
        <ele>79</ele>
        <time>2010-05-29T15:31:55Z</time>
      </trkpt>
      <trkpt lat="44.72649" lon="-0.37543">
        <ele>79</ele>
        <time>2010-05-29T15:31:58Z</time>
      </trkpt>
      <trkpt lat="44.72637" lon="-0.37546">
        <ele>78</ele>
        <time>2010-05-29T15:32:01Z</time>
      </trkpt>
      <trkpt lat="44.72626" lon="-0.37551">
        <ele>78</ele>
        <time>2010-05-29T15:32:04Z</time>
      </trkpt>
      <trkpt lat="44.72615" lon="-0.37559">
        <ele>77</ele>
        <time>2010-05-29T15:32:07Z</time>
      </trkpt>
      <trkpt lat="44.72603" lon="-0.37567">
        <ele>77</ele>
        <time>2010-05-29T15:32:10Z</time>
      </trkpt>
      <trkpt lat="44.7259" lon="-0.37575">
        <ele>76</ele>
        <time>2010-05-29T15:32:13Z</time>
      </trkpt>
      <trkpt lat="44.72581" lon="-0.3758">
        <ele>76</ele>
        <time>2010-05-29T15:32:15Z</time>
      </trkpt>
      <trkpt lat="44.72571" lon="-0.37587">
        <ele>75</ele>
        <time>2010-05-29T15:32:17Z</time>
      </trkpt>
      <trkpt lat="44.72562" lon="-0.37594">
        <ele>74</ele>
        <time>2010-05-29T15:32:19Z</time>
      </trkpt>
      <trkpt lat="44.72551" lon="-0.37602">
        <ele>73</ele>
        <time>2010-05-29T15:32:21Z</time>
      </trkpt>
      <trkpt lat="44.72541" lon="-0.37611">
        <ele>72</ele>
        <time>2010-05-29T15:32:23Z</time>
      </trkpt>
      <trkpt lat="44.72531" lon="-0.37618">
        <ele>72</ele>
        <time>2010-05-29T15:32:25Z</time>
      </trkpt>
      <trkpt lat="44.72521" lon="-0.37619">
        <ele>72</ele>
        <time>2010-05-29T15:32:27Z</time>
      </trkpt>
      <trkpt lat="44.72513" lon="-0.3761">
        <ele>72</ele>
        <time>2010-05-29T15:32:30Z</time>
      </trkpt>
      <trkpt lat="44.72508" lon="-0.37595">
        <ele>72</ele>
        <time>2010-05-29T15:32:33Z</time>
      </trkpt>
      <trkpt lat="44.72503" lon="-0.37581">
        <ele>73</ele>
        <time>2010-05-29T15:32:36Z</time>
      </trkpt>
      <trkpt lat="44.72496" lon="-0.37566">
        <ele>73</ele>
        <time>2010-05-29T15:32:39Z</time>
      </trkpt>
      <trkpt lat="44.72491" lon="-0.3755">
        <ele>73</ele>
        <time>2010-05-29T15:32:42Z</time>
      </trkpt>
      <trkpt lat="44.72483" lon="-0.37533">
        <ele>72</ele>
        <time>2010-05-29T15:32:45Z</time>
      </trkpt>
      <trkpt lat="44.72478" lon="-0.3752">
        <ele>72</ele>
        <time>2010-05-29T15:32:47Z</time>
      </trkpt>
      <trkpt lat="44.72474" lon="-0.37508">
        <ele>71</ele>
        <time>2010-05-29T15:32:49Z</time>
      </trkpt>
      <trkpt lat="44.72469" lon="-0.37495">
        <ele>69</ele>
        <time>2010-05-29T15:32:51Z</time>
      </trkpt>
      <trkpt lat="44.72463" lon="-0.37482">
        <ele>68</ele>
        <time>2010-05-29T15:32:53Z</time>
      </trkpt>
      <trkpt lat="44.72456" lon="-0.37467">
        <ele>66</ele>
        <time>2010-05-29T15:32:55Z</time>
      </trkpt>
      <trkpt lat="44.72451" lon="-0.37454">
        <ele>64</ele>
        <time>2010-05-29T15:32:57Z</time>
      </trkpt>
      <trkpt lat="44.72449" lon="-0.3744">
        <ele>62</ele>
        <time>2010-05-29T15:33:00Z</time>
      </trkpt>
      <trkpt lat="44.7246" lon="-0.3743">
        <ele>62</ele>
        <time>2010-05-29T15:33:04Z</time>
      </trkpt>
      <trkpt lat="44.7247" lon="-0.37417">
        <ele>61</ele>
        <time>2010-05-29T15:33:07Z</time>
      </trkpt>
      <trkpt lat="44.72478" lon="-0.37407">
        <ele>61</ele>
        <time>2010-05-29T15:33:09Z</time>
      </trkpt>
      <trkpt lat="44.72488" lon="-0.37396">
        <ele>61</ele>
        <time>2010-05-29T15:33:11Z</time>
      </trkpt>
      <trkpt lat="44.72498" lon="-0.37385">
        <ele>61</ele>
        <time>2010-05-29T15:33:13Z</time>
      </trkpt>
      <trkpt lat="44.72508" lon="-0.37375">
        <ele>61</ele>
        <time>2010-05-29T15:33:15Z</time>
      </trkpt>
      <trkpt lat="44.72519" lon="-0.37365">
        <ele>62</ele>
        <time>2010-05-29T15:33:17Z</time>
      </trkpt>
      <trkpt lat="44.72526" lon="-0.37356">
        <ele>63</ele>
        <time>2010-05-29T15:33:19Z</time>
      </trkpt>
      <trkpt lat="44.72534" lon="-0.37345">
        <ele>63</ele>
        <time>2010-05-29T15:33:22Z</time>
      </trkpt>
      <trkpt lat="44.7254" lon="-0.37335">
        <ele>64</ele>
        <time>2010-05-29T15:33:25Z</time>
      </trkpt>
      <trkpt lat="44.72548" lon="-0.37322">
        <ele>65</ele>
        <time>2010-05-29T15:33:29Z</time>
      </trkpt>
      <trkpt lat="44.72555" lon="-0.3731">
        <ele>65</ele>
        <time>2010-05-29T15:33:33Z</time>
      </trkpt>
      <trkpt lat="44.72562" lon="-0.37296">
        <ele>66</ele>
        <time>2010-05-29T15:33:37Z</time>
      </trkpt>
      <trkpt lat="44.72569" lon="-0.37284">
        <ele>67</ele>
        <time>2010-05-29T15:33:41Z</time>
      </trkpt>
      <trkpt lat="44.72576" lon="-0.37269">
        <ele>68</ele>
        <time>2010-05-29T15:33:45Z</time>
      </trkpt>
      <trkpt lat="44.72583" lon="-0.37255">
        <ele>68</ele>
        <time>2010-05-29T15:33:49Z</time>
      </trkpt>
      <trkpt lat="44.72581" lon="-0.37237">
        <ele>67</ele>
        <time>2010-05-29T15:33:53Z</time>
      </trkpt>
      <trkpt lat="44.72572" lon="-0.37225">
        <ele>65</ele>
        <time>2010-05-29T15:33:55Z</time>
      </trkpt>
      <trkpt lat="44.72562" lon="-0.37213">
        <ele>62</ele>
        <time>2010-05-29T15:33:57Z</time>
      </trkpt>
      <trkpt lat="44.72549" lon="-0.37197">
        <ele>59</ele>
        <time>2010-05-29T15:33:59Z</time>
      </trkpt>
      <trkpt lat="44.72542" lon="-0.37189">
        <ele>58</ele>
        <time>2010-05-29T15:34:00Z</time>
      </trkpt>
      <trkpt lat="44.72528" lon="-0.37173">
        <ele>56</ele>
        <time>2010-05-29T15:34:02Z</time>
      </trkpt>
      <trkpt lat="44.72519" lon="-0.37161">
        <ele>55</ele>
        <time>2010-05-29T15:34:04Z</time>
      </trkpt>
      <trkpt lat="44.72519" lon="-0.37143">
        <ele>55</ele>
        <time>2010-05-29T15:34:07Z</time>
      </trkpt>
      <trkpt lat="44.72524" lon="-0.37127">
        <ele>56</ele>
        <time>2010-05-29T15:34:10Z</time>
      </trkpt>
      <trkpt lat="44.72527" lon="-0.3711">
        <ele>57</ele>
        <time>2010-05-29T15:34:13Z</time>
      </trkpt>
      <trkpt lat="44.72528" lon="-0.37094">
        <ele>57</ele>
        <time>2010-05-29T15:34:17Z</time>
      </trkpt>
      <trkpt lat="44.72525" lon="-0.37081">
        <ele>57</ele>
        <time>2010-05-29T15:34:20Z</time>
      </trkpt>
      <trkpt lat="44.72526" lon="-0.37066">
        <ele>58</ele>
        <time>2010-05-29T15:34:23Z</time>
      </trkpt>
      <trkpt lat="44.72527" lon="-0.37052">
        <ele>58</ele>
        <time>2010-05-29T15:34:26Z</time>
      </trkpt>
      <trkpt lat="44.7253" lon="-0.37035">
        <ele>59</ele>
        <time>2010-05-29T15:34:30Z</time>
      </trkpt>
      <trkpt lat="44.72532" lon="-0.37018">
        <ele>59</ele>
        <time>2010-05-29T15:34:34Z</time>
      </trkpt>
      <trkpt lat="44.72533" lon="-0.37003">
        <ele>60</ele>
        <time>2010-05-29T15:34:38Z</time>
      </trkpt>
      <trkpt lat="44.72535" lon="-0.36987">
        <ele>60</ele>
        <time>2010-05-29T15:34:42Z</time>
      </trkpt>
      <trkpt lat="44.72538" lon="-0.36973">
        <ele>61</ele>
        <time>2010-05-29T15:34:46Z</time>
      </trkpt>
      <trkpt lat="44.72541" lon="-0.36959">
        <ele>62</ele>
        <time>2010-05-29T15:34:50Z</time>
      </trkpt>
      <trkpt lat="44.72544" lon="-0.36944">
        <ele>62</ele>
        <time>2010-05-29T15:34:54Z</time>
      </trkpt>
      <trkpt lat="44.72547" lon="-0.3693">
        <ele>63</ele>
        <time>2010-05-29T15:34:58Z</time>
      </trkpt>
      <trkpt lat="44.72555" lon="-0.36919">
        <ele>65</ele>
        <time>2010-05-29T15:35:03Z</time>
      </trkpt>
      <trkpt lat="44.72561" lon="-0.36907">
        <ele>67</ele>
        <time>2010-05-29T15:35:08Z</time>
      </trkpt>
      <trkpt lat="44.72564" lon="-0.36893">
        <ele>68</ele>
        <time>2010-05-29T15:35:13Z</time>
      </trkpt>
      <trkpt lat="44.72568" lon="-0.36879">
        <ele>69</ele>
        <time>2010-05-29T15:35:19Z</time>
      </trkpt>
      <trkpt lat="44.72571" lon="-0.36867">
        <ele>71</ele>
        <time>2010-05-29T15:35:25Z</time>
      </trkpt>
      <trkpt lat="44.72574" lon="-0.36854">
        <ele>72</ele>
        <time>2010-05-29T15:35:31Z</time>
      </trkpt>
      <trkpt lat="44.72574" lon="-0.36841">
        <ele>73</ele>
        <time>2010-05-29T15:35:37Z</time>
      </trkpt>
      <trkpt lat="44.72566" lon="-0.36834">
        <ele>73</ele>
        <time>2010-05-29T15:35:42Z</time>
      </trkpt>
      <trkpt lat="44.72556" lon="-0.36833">
        <ele>73</ele>
        <time>2010-05-29T15:35:46Z</time>
      </trkpt>
      <trkpt lat="44.72547" lon="-0.36827">
        <ele>74</ele>
        <time>2010-05-29T15:35:51Z</time>
      </trkpt>
      <trkpt lat="44.72553" lon="-0.36814">
        <ele>75</ele>
        <time>2010-05-29T15:35:58Z</time>
      </trkpt>
      <trkpt lat="44.72546" lon="-0.36803">
        <ele>76</ele>
        <time>2010-05-29T15:36:03Z</time>
      </trkpt>
      <trkpt lat="44.72536" lon="-0.36802">
        <ele>76</ele>
        <time>2010-05-29T15:36:08Z</time>
      </trkpt>
      <trkpt lat="44.72524" lon="-0.36803">
        <ele>77</ele>
        <time>2010-05-29T15:36:14Z</time>
      </trkpt>
      <trkpt lat="44.72514" lon="-0.36805">
        <ele>77</ele>
        <time>2010-05-29T15:36:20Z</time>
      </trkpt>
      <trkpt lat="44.72503" lon="-0.36806">
        <ele>78</ele>
        <time>2010-05-29T15:36:25Z</time>
      </trkpt>
      <trkpt lat="44.72492" lon="-0.36815">
        <ele>78</ele>
        <time>2010-05-29T15:36:29Z</time>
      </trkpt>
      <trkpt lat="44.72484" lon="-0.36824">
        <ele>79</ele>
        <time>2010-05-29T15:36:32Z</time>
      </trkpt>
      <trkpt lat="44.72475" lon="-0.36835">
        <ele>79</ele>
        <time>2010-05-29T15:36:36Z</time>
      </trkpt>
      <trkpt lat="44.72467" lon="-0.36842">
        <ele>79</ele>
        <time>2010-05-29T15:36:39Z</time>
      </trkpt>
      <trkpt lat="44.72458" lon="-0.3685">
        <ele>79</ele>
        <time>2010-05-29T15:36:42Z</time>
      </trkpt>
      <trkpt lat="44.72449" lon="-0.36861">
        <ele>79</ele>
        <time>2010-05-29T15:36:45Z</time>
      </trkpt>
      <trkpt lat="44.72442" lon="-0.36873">
        <ele>79</ele>
        <time>2010-05-29T15:36:48Z</time>
      </trkpt>
      <trkpt lat="44.72435" lon="-0.36884">
        <ele>79</ele>
        <time>2010-05-29T15:36:51Z</time>
      </trkpt>
      <trkpt lat="44.72426" lon="-0.36893">
        <ele>79</ele>
        <time>2010-05-29T15:36:54Z</time>
      </trkpt>
      <trkpt lat="44.72416" lon="-0.369">
        <ele>79</ele>
        <time>2010-05-29T15:36:57Z</time>
      </trkpt>
      <trkpt lat="44.72405" lon="-0.36908">
        <ele>79</ele>
        <time>2010-05-29T15:37:00Z</time>
      </trkpt>
      <trkpt lat="44.72394" lon="-0.36918">
        <ele>78</ele>
        <time>2010-05-29T15:37:03Z</time>
      </trkpt>
      <trkpt lat="44.72385" lon="-0.36924">
        <ele>77</ele>
        <time>2010-05-29T15:37:05Z</time>
      </trkpt>
      <trkpt lat="44.72376" lon="-0.36932">
        <ele>77</ele>
        <time>2010-05-29T15:37:07Z</time>
      </trkpt>
      <trkpt lat="44.72367" lon="-0.3694">
        <ele>77</ele>
        <time>2010-05-29T15:37:09Z</time>
      </trkpt>
      <trkpt lat="44.72357" lon="-0.36948">
        <ele>77</ele>
        <time>2010-05-29T15:37:11Z</time>
      </trkpt>
      <trkpt lat="44.72348" lon="-0.36956">
        <ele>76</ele>
        <time>2010-05-29T15:37:13Z</time>
      </trkpt>
      <trkpt lat="44.72339" lon="-0.36964">
        <ele>76</ele>
        <time>2010-05-29T15:37:15Z</time>
      </trkpt>
      <trkpt lat="44.7233" lon="-0.36971">
        <ele>76</ele>
        <time>2010-05-29T15:37:17Z</time>
      </trkpt>
      <trkpt lat="44.72321" lon="-0.36978">
        <ele>76</ele>
        <time>2010-05-29T15:37:19Z</time>
      </trkpt>
      <trkpt lat="44.7231" lon="-0.36987">
        <ele>76</ele>
        <time>2010-05-29T15:37:22Z</time>
      </trkpt>
      <trkpt lat="44.72298" lon="-0.36998">
        <ele>76</ele>
        <time>2010-05-29T15:37:25Z</time>
      </trkpt>
      <trkpt lat="44.7229" lon="-0.37005">
        <ele>76</ele>
        <time>2010-05-29T15:37:27Z</time>
      </trkpt>
      <trkpt lat="44.72281" lon="-0.37012">
        <ele>75</ele>
        <time>2010-05-29T15:37:29Z</time>
      </trkpt>
      <trkpt lat="44.72271" lon="-0.37021">
        <ele>75</ele>
        <time>2010-05-29T15:37:31Z</time>
      </trkpt>
      <trkpt lat="44.72261" lon="-0.3703">
        <ele>74</ele>
        <time>2010-05-29T15:37:33Z</time>
      </trkpt>
      <trkpt lat="44.72249" lon="-0.37041">
        <ele>74</ele>
        <time>2010-05-29T15:37:35Z</time>
      </trkpt>
      <trkpt lat="44.72236" lon="-0.37053">
        <ele>73</ele>
        <time>2010-05-29T15:37:37Z</time>
      </trkpt>
      <trkpt lat="44.72224" lon="-0.37063">
        <ele>72</ele>
        <time>2010-05-29T15:37:39Z</time>
      </trkpt>
      <trkpt lat="44.72214" lon="-0.37069">
        <ele>71</ele>
        <time>2010-05-29T15:37:41Z</time>
      </trkpt>
      <trkpt lat="44.72207" lon="-0.37059">
        <ele>71</ele>
        <time>2010-05-29T15:37:44Z</time>
      </trkpt>
      <trkpt lat="44.72208" lon="-0.37044">
        <ele>71</ele>
        <time>2010-05-29T15:37:47Z</time>
      </trkpt>
      <trkpt lat="44.72207" lon="-0.37027">
        <ele>71</ele>
        <time>2010-05-29T15:37:50Z</time>
      </trkpt>
      <trkpt lat="44.72205" lon="-0.37008">
        <ele>71</ele>
        <time>2010-05-29T15:37:53Z</time>
      </trkpt>
      <trkpt lat="44.72205" lon="-0.36994">
        <ele>71</ele>
        <time>2010-05-29T15:37:55Z</time>
      </trkpt>
      <trkpt lat="44.72204" lon="-0.3698">
        <ele>71</ele>
        <time>2010-05-29T15:37:57Z</time>
      </trkpt>
      <trkpt lat="44.72202" lon="-0.36963">
        <ele>70</ele>
        <time>2010-05-29T15:37:59Z</time>
      </trkpt>
      <trkpt lat="44.72201" lon="-0.36945">
        <ele>70</ele>
        <time>2010-05-29T15:38:01Z</time>
      </trkpt>
      <trkpt lat="44.722" lon="-0.36928">
        <ele>69</ele>
        <time>2010-05-29T15:38:03Z</time>
      </trkpt>
      <trkpt lat="44.72198" lon="-0.36913">
        <ele>69</ele>
        <time>2010-05-29T15:38:05Z</time>
      </trkpt>
      <trkpt lat="44.72198" lon="-0.36898">
        <ele>68</ele>
        <time>2010-05-29T15:38:07Z</time>
      </trkpt>
      <trkpt lat="44.72197" lon="-0.36885">
        <ele>68</ele>
        <time>2010-05-29T15:38:09Z</time>
      </trkpt>
      <trkpt lat="44.72194" lon="-0.36867">
        <ele>67</ele>
        <time>2010-05-29T15:38:12Z</time>
      </trkpt>
      <trkpt lat="44.7218" lon="-0.36862">
        <ele>65</ele>
        <time>2010-05-29T15:38:15Z</time>
      </trkpt>
      <trkpt lat="44.72165" lon="-0.36863">
        <ele>63</ele>
        <time>2010-05-29T15:38:17Z</time>
      </trkpt>
      <trkpt lat="44.72148" lon="-0.36865">
        <ele>60</ele>
        <time>2010-05-29T15:38:19Z</time>
      </trkpt>
      <trkpt lat="44.72138" lon="-0.36867">
        <ele>59</ele>
        <time>2010-05-29T15:38:20Z</time>
      </trkpt>
      <trkpt lat="44.72128" lon="-0.36868">
        <ele>58</ele>
        <time>2010-05-29T15:38:21Z</time>
      </trkpt>
      <trkpt lat="44.72118" lon="-0.36869">
        <ele>57</ele>
        <time>2010-05-29T15:38:22Z</time>
      </trkpt>
      <trkpt lat="44.72108" lon="-0.36871">
        <ele>55</ele>
        <time>2010-05-29T15:38:23Z</time>
      </trkpt>
      <trkpt lat="44.72099" lon="-0.36871">
        <ele>54</ele>
        <time>2010-05-29T15:38:24Z</time>
      </trkpt>
      <trkpt lat="44.72081" lon="-0.36874">
        <ele>51</ele>
        <time>2010-05-29T15:38:26Z</time>
      </trkpt>
      <trkpt lat="44.72064" lon="-0.36877">
        <ele>48</ele>
        <time>2010-05-29T15:38:28Z</time>
      </trkpt>
      <trkpt lat="44.72047" lon="-0.3688">
        <ele>45</ele>
        <time>2010-05-29T15:38:30Z</time>
      </trkpt>
      <trkpt lat="44.7203" lon="-0.36885">
        <ele>42</ele>
        <time>2010-05-29T15:38:32Z</time>
      </trkpt>
      <trkpt lat="44.72016" lon="-0.36895">
        <ele>40</ele>
        <time>2010-05-29T15:38:34Z</time>
      </trkpt>
      <trkpt lat="44.72006" lon="-0.36907">
        <ele>38</ele>
        <time>2010-05-29T15:38:36Z</time>
      </trkpt>
      <trkpt lat="44.72001" lon="-0.36919">
        <ele>38</ele>
        <time>2010-05-29T15:38:38Z</time>
      </trkpt>
      <trkpt lat="44.71997" lon="-0.36932">
        <ele>38</ele>
        <time>2010-05-29T15:38:40Z</time>
      </trkpt>
      <trkpt lat="44.71995" lon="-0.36945">
        <ele>37</ele>
        <time>2010-05-29T15:38:42Z</time>
      </trkpt>
      <trkpt lat="44.71995" lon="-0.3696">
        <ele>38</ele>
        <time>2010-05-29T15:38:44Z</time>
      </trkpt>
      <trkpt lat="44.71995" lon="-0.36979">
        <ele>38</ele>
        <time>2010-05-29T15:38:47Z</time>
      </trkpt>
      <trkpt lat="44.71998" lon="-0.36995">
        <ele>39</ele>
        <time>2010-05-29T15:38:49Z</time>
      </trkpt>
      <trkpt lat="44.71999" lon="-0.37012">
        <ele>40</ele>
        <time>2010-05-29T15:38:51Z</time>
      </trkpt>
      <trkpt lat="44.72001" lon="-0.37026">
        <ele>40</ele>
        <time>2010-05-29T15:38:53Z</time>
      </trkpt>
      <trkpt lat="44.72002" lon="-0.37039">
        <ele>41</ele>
        <time>2010-05-29T15:38:55Z</time>
      </trkpt>
      <trkpt lat="44.72004" lon="-0.37057">
        <ele>41</ele>
        <time>2010-05-29T15:38:57Z</time>
      </trkpt>
      <trkpt lat="44.72006" lon="-0.37072">
        <ele>41</ele>
        <time>2010-05-29T15:38:59Z</time>
      </trkpt>
      <trkpt lat="44.72008" lon="-0.37085">
        <ele>41</ele>
        <time>2010-05-29T15:39:01Z</time>
      </trkpt>
      <trkpt lat="44.7201" lon="-0.371">
        <ele>41</ele>
        <time>2010-05-29T15:39:03Z</time>
      </trkpt>
      <trkpt lat="44.72011" lon="-0.37115">
        <ele>40</ele>
        <time>2010-05-29T15:39:05Z</time>
      </trkpt>
      <trkpt lat="44.72014" lon="-0.3713">
        <ele>40</ele>
        <time>2010-05-29T15:39:07Z</time>
      </trkpt>
      <trkpt lat="44.72014" lon="-0.37144">
        <ele>39</ele>
        <time>2010-05-29T15:39:11Z</time>
      </trkpt>
      <trkpt lat="44.72006" lon="-0.37135">
        <ele>38</ele>
        <time>2010-05-29T15:39:18Z</time>
      </trkpt>
      <trkpt lat="44.71997" lon="-0.37128">
        <ele>36</ele>
        <time>2010-05-29T15:39:22Z</time>
      </trkpt>
      <trkpt lat="44.71988" lon="-0.37119">
        <ele>34</ele>
        <time>2010-05-29T15:39:26Z</time>
      </trkpt>
      <trkpt lat="44.71986" lon="-0.37103">
        <ele>33</ele>
        <time>2010-05-29T15:39:29Z</time>
      </trkpt>
      <trkpt lat="44.71986" lon="-0.37087">
        <ele>34</ele>
        <time>2010-05-29T15:39:32Z</time>
      </trkpt>
      <trkpt lat="44.71985" lon="-0.37072">
        <ele>34</ele>
        <time>2010-05-29T15:39:35Z</time>
      </trkpt>
      <trkpt lat="44.71981" lon="-0.37058">
        <ele>33</ele>
        <time>2010-05-29T15:39:38Z</time>
      </trkpt>
      <trkpt lat="44.71976" lon="-0.37045">
        <ele>32</ele>
        <time>2010-05-29T15:39:41Z</time>
      </trkpt>
      <trkpt lat="44.71977" lon="-0.37031">
        <ele>32</ele>
        <time>2010-05-29T15:39:45Z</time>
      </trkpt>
      <trkpt lat="44.71974" lon="-0.37015">
        <ele>32</ele>
        <time>2010-05-29T15:39:50Z</time>
      </trkpt>
      <trkpt lat="44.71975" lon="-0.37002">
        <ele>32</ele>
        <time>2010-05-29T15:39:56Z</time>
      </trkpt>
      <trkpt lat="44.7198" lon="-0.36988">
        <ele>34</ele>
        <time>2010-05-29T15:40:01Z</time>
      </trkpt>
      <trkpt lat="44.71984" lon="-0.36976">
        <ele>35</ele>
        <time>2010-05-29T15:40:05Z</time>
      </trkpt>
      <trkpt lat="44.71985" lon="-0.36962">
        <ele>35</ele>
        <time>2010-05-29T15:40:10Z</time>
      </trkpt>
      <trkpt lat="44.71988" lon="-0.36946">
        <ele>36</ele>
        <time>2010-05-29T15:40:14Z</time>
      </trkpt>
      <trkpt lat="44.71991" lon="-0.36931">
        <ele>36</ele>
        <time>2010-05-29T15:40:18Z</time>
      </trkpt>
      <trkpt lat="44.71988" lon="-0.36912">
        <ele>34</ele>
        <time>2010-05-29T15:40:24Z</time>
      </trkpt>
      <trkpt lat="44.71986" lon="-0.36899">
        <ele>33</ele>
        <time>2010-05-29T15:40:26Z</time>
      </trkpt>
      <trkpt lat="44.71985" lon="-0.36883">
        <ele>32</ele>
        <time>2010-05-29T15:40:29Z</time>
      </trkpt>
      <trkpt lat="44.71993" lon="-0.36876">
        <ele>33</ele>
        <time>2010-05-29T15:40:33Z</time>
      </trkpt>
      <trkpt lat="44.72004" lon="-0.36873">
        <ele>36</ele>
        <time>2010-05-29T15:40:39Z</time>
      </trkpt>
      <trkpt lat="44.72011" lon="-0.36863">
        <ele>36</ele>
        <time>2010-05-29T15:40:45Z</time>
      </trkpt>
      <trkpt lat="44.72017" lon="-0.36851">
        <ele>37</ele>
        <time>2010-05-29T15:40:51Z</time>
      </trkpt>
      <trkpt lat="44.72026" lon="-0.36846">
        <ele>39</ele>
        <time>2010-05-29T15:40:55Z</time>
      </trkpt>
      <trkpt lat="44.72034" lon="-0.36837">
        <ele>40</ele>
        <time>2010-05-29T15:41:00Z</time>
      </trkpt>
      <trkpt lat="44.72037" lon="-0.36822">
        <ele>40</ele>
        <time>2010-05-29T15:41:05Z</time>
      </trkpt>
      <trkpt lat="44.72038" lon="-0.36807">
        <ele>39</ele>
        <time>2010-05-29T15:41:08Z</time>
      </trkpt>
      <trkpt lat="44.72036" lon="-0.36791">
        <ele>38</ele>
        <time>2010-05-29T15:41:12Z</time>
      </trkpt>
      <trkpt lat="44.72038" lon="-0.36774">
        <ele>37</ele>
        <time>2010-05-29T15:41:16Z</time>
      </trkpt>
      <trkpt lat="44.72039" lon="-0.3675">
        <ele>37</ele>
        <time>2010-05-29T15:41:21Z</time>
      </trkpt>
      <trkpt lat="44.72038" lon="-0.36736">
        <ele>36</ele>
        <time>2010-05-29T15:41:23Z</time>
      </trkpt>
      <trkpt lat="44.72038" lon="-0.36719">
        <ele>35</ele>
        <time>2010-05-29T15:41:26Z</time>
      </trkpt>
      <trkpt lat="44.72038" lon="-0.36704">
        <ele>34</ele>
        <time>2010-05-29T15:41:29Z</time>
      </trkpt>
      <trkpt lat="44.72042" lon="-0.36688">
        <ele>34</ele>
        <time>2010-05-29T15:41:32Z</time>
      </trkpt>
      <trkpt lat="44.72045" lon="-0.36671">
        <ele>34</ele>
        <time>2010-05-29T15:41:35Z</time>
      </trkpt>
      <trkpt lat="44.72045" lon="-0.36657">
        <ele>33</ele>
        <time>2010-05-29T15:41:37Z</time>
      </trkpt>
      <trkpt lat="44.72044" lon="-0.36642">
        <ele>31</ele>
        <time>2010-05-29T15:41:39Z</time>
      </trkpt>
      <trkpt lat="44.72045" lon="-0.36625">
        <ele>30</ele>
        <time>2010-05-29T15:41:42Z</time>
      </trkpt>
      <trkpt lat="44.72049" lon="-0.36608">
        <ele>29</ele>
        <time>2010-05-29T15:41:45Z</time>
      </trkpt>
      <trkpt lat="44.72053" lon="-0.36591">
        <ele>30</ele>
        <time>2010-05-29T15:41:48Z</time>
      </trkpt>
      <trkpt lat="44.72058" lon="-0.36579">
        <ele>31</ele>
        <time>2010-05-29T15:41:50Z</time>
      </trkpt>
      <trkpt lat="44.72059" lon="-0.36566">
        <ele>31</ele>
        <time>2010-05-29T15:41:52Z</time>
      </trkpt>
      <trkpt lat="44.7206" lon="-0.36547">
        <ele>32</ele>
        <time>2010-05-29T15:41:55Z</time>
      </trkpt>
      <trkpt lat="44.72061" lon="-0.36534">
        <ele>31</ele>
        <time>2010-05-29T15:41:57Z</time>
      </trkpt>
      <trkpt lat="44.72062" lon="-0.3652">
        <ele>31</ele>
        <time>2010-05-29T15:41:59Z</time>
      </trkpt>
      <trkpt lat="44.72065" lon="-0.36501">
        <ele>31</ele>
        <time>2010-05-29T15:42:02Z</time>
      </trkpt>
      <trkpt lat="44.72067" lon="-0.36488">
        <ele>30</ele>
        <time>2010-05-29T15:42:04Z</time>
      </trkpt>
      <trkpt lat="44.72068" lon="-0.36474">
        <ele>30</ele>
        <time>2010-05-29T15:42:06Z</time>
      </trkpt>
      <trkpt lat="44.72071" lon="-0.36456">
        <ele>31</ele>
        <time>2010-05-29T15:42:09Z</time>
      </trkpt>
      <trkpt lat="44.72067" lon="-0.36444">
        <ele>30</ele>
        <time>2010-05-29T15:42:13Z</time>
      </trkpt>
      <trkpt lat="44.72056" lon="-0.36441">
        <ele>28</ele>
        <time>2010-05-29T15:42:15Z</time>
      </trkpt>
      <trkpt lat="44.72044" lon="-0.36438">
        <ele>26</ele>
        <time>2010-05-29T15:42:17Z</time>
      </trkpt>
      <trkpt lat="44.72034" lon="-0.3643">
        <ele>25</ele>
        <time>2010-05-29T15:42:20Z</time>
      </trkpt>
      <trkpt lat="44.72036" lon="-0.36416">
        <ele>25</ele>
        <time>2010-05-29T15:42:24Z</time>
      </trkpt>
      <trkpt lat="44.72042" lon="-0.36401">
        <ele>25</ele>
        <time>2010-05-29T15:42:28Z</time>
      </trkpt>
      <trkpt lat="44.72047" lon="-0.36388">
        <ele>26</ele>
        <time>2010-05-29T15:42:31Z</time>
      </trkpt>
      <trkpt lat="44.72054" lon="-0.36377">
        <ele>26</ele>
        <time>2010-05-29T15:42:34Z</time>
      </trkpt>
      <trkpt lat="44.7206" lon="-0.36365">
        <ele>27</ele>
        <time>2010-05-29T15:42:37Z</time>
      </trkpt>
      <trkpt lat="44.72067" lon="-0.36355">
        <ele>28</ele>
        <time>2010-05-29T15:42:40Z</time>
      </trkpt>
      <trkpt lat="44.7207" lon="-0.36342">
        <ele>27</ele>
        <time>2010-05-29T15:42:43Z</time>
      </trkpt>
      <trkpt lat="44.72076" lon="-0.36331">
        <ele>28</ele>
        <time>2010-05-29T15:42:46Z</time>
      </trkpt>
      <trkpt lat="44.72084" lon="-0.36317">
        <ele>28</ele>
        <time>2010-05-29T15:42:50Z</time>
      </trkpt>
      <trkpt lat="44.72089" lon="-0.36305">
        <ele>28</ele>
        <time>2010-05-29T15:42:53Z</time>
      </trkpt>
      <trkpt lat="44.72095" lon="-0.36291">
        <ele>28</ele>
        <time>2010-05-29T15:42:56Z</time>
      </trkpt>
      <trkpt lat="44.72097" lon="-0.36276">
        <ele>29</ele>
        <time>2010-05-29T15:42:59Z</time>
      </trkpt>
      <trkpt lat="44.72097" lon="-0.36261">
        <ele>30</ele>
        <time>2010-05-29T15:43:02Z</time>
      </trkpt>
      <trkpt lat="44.72093" lon="-0.36246">
        <ele>29</ele>
        <time>2010-05-29T15:43:05Z</time>
      </trkpt>
      <trkpt lat="44.72088" lon="-0.36233">
        <ele>29</ele>
        <time>2010-05-29T15:43:08Z</time>
      </trkpt>
      <trkpt lat="44.72091" lon="-0.36219">
        <ele>30</ele>
        <time>2010-05-29T15:43:12Z</time>
      </trkpt>
      <trkpt lat="44.72101" lon="-0.36217">
        <ele>32</ele>
        <time>2010-05-29T15:43:17Z</time>
      </trkpt>
      <trkpt lat="44.72112" lon="-0.36215">
        <ele>34</ele>
        <time>2010-05-29T15:43:23Z</time>
      </trkpt>
      <trkpt lat="44.72122" lon="-0.36211">
        <ele>35</ele>
        <time>2010-05-29T15:43:29Z</time>
      </trkpt>
      <trkpt lat="44.72132" lon="-0.36209">
        <ele>37</ele>
        <time>2010-05-29T15:43:35Z</time>
      </trkpt>
      <trkpt lat="44.72141" lon="-0.36207">
        <ele>38</ele>
        <time>2010-05-29T15:43:40Z</time>
      </trkpt>
      <trkpt lat="44.72152" lon="-0.36207">
        <ele>40</ele>
        <time>2010-05-29T15:43:45Z</time>
      </trkpt>
      <trkpt lat="44.72162" lon="-0.36206">
        <ele>41</ele>
        <time>2010-05-29T15:43:50Z</time>
      </trkpt>
      <trkpt lat="44.72172" lon="-0.36206">
        <ele>42</ele>
        <time>2010-05-29T15:43:55Z</time>
      </trkpt>
      <trkpt lat="44.72182" lon="-0.36205">
        <ele>43</ele>
        <time>2010-05-29T15:44:00Z</time>
      </trkpt>
      <trkpt lat="44.72193" lon="-0.36205">
        <ele>44</ele>
        <time>2010-05-29T15:44:05Z</time>
      </trkpt>
      <trkpt lat="44.72204" lon="-0.36203">
        <ele>45</ele>
        <time>2010-05-29T15:44:10Z</time>
      </trkpt>
      <trkpt lat="44.72214" lon="-0.36202">
        <ele>46</ele>
        <time>2010-05-29T15:44:15Z</time>
      </trkpt>
      <trkpt lat="44.72224" lon="-0.36198">
        <ele>47</ele>
        <time>2010-05-29T15:44:20Z</time>
      </trkpt>
      <trkpt lat="44.72236" lon="-0.36186">
        <ele>48</ele>
        <time>2010-05-29T15:46:41Z</time>
      </trkpt>
      <trkpt lat="44.72247" lon="-0.3619">
        <ele>49</ele>
        <time>2010-05-29T15:46:45Z</time>
      </trkpt>
      <trkpt lat="44.72258" lon="-0.36196">
        <ele>49</ele>
        <time>2010-05-29T15:46:49Z</time>
      </trkpt>
      <trkpt lat="44.72269" lon="-0.36202">
        <ele>50</ele>
        <time>2010-05-29T15:46:53Z</time>
      </trkpt>
      <trkpt lat="44.72278" lon="-0.36208">
        <ele>50</ele>
        <time>2010-05-29T15:46:56Z</time>
      </trkpt>
      <trkpt lat="44.72287" lon="-0.36213">
        <ele>51</ele>
        <time>2010-05-29T15:46:59Z</time>
      </trkpt>
      <trkpt lat="44.72296" lon="-0.36217">
        <ele>52</ele>
        <time>2010-05-29T15:47:02Z</time>
      </trkpt>
      <trkpt lat="44.72307" lon="-0.36221">
        <ele>52</ele>
        <time>2010-05-29T15:47:06Z</time>
      </trkpt>
      <trkpt lat="44.72317" lon="-0.36229">
        <ele>52</ele>
        <time>2010-05-29T15:47:10Z</time>
      </trkpt>
      <trkpt lat="44.72325" lon="-0.36235">
        <ele>53</ele>
        <time>2010-05-29T15:47:13Z</time>
      </trkpt>
      <trkpt lat="44.72334" lon="-0.36241">
        <ele>53</ele>
        <time>2010-05-29T15:47:16Z</time>
      </trkpt>
      <trkpt lat="44.72344" lon="-0.36249">
        <ele>53</ele>
        <time>2010-05-29T15:47:20Z</time>
      </trkpt>
      <trkpt lat="44.72353" lon="-0.36254">
        <ele>54</ele>
        <time>2010-05-29T15:47:23Z</time>
      </trkpt>
      <trkpt lat="44.72364" lon="-0.3626">
        <ele>54</ele>
        <time>2010-05-29T15:47:27Z</time>
      </trkpt>
      <trkpt lat="44.72375" lon="-0.36264">
        <ele>55</ele>
        <time>2010-05-29T15:47:31Z</time>
      </trkpt>
      <trkpt lat="44.72385" lon="-0.3627">
        <ele>55</ele>
        <time>2010-05-29T15:47:35Z</time>
      </trkpt>
      <trkpt lat="44.72397" lon="-0.36272">
        <ele>56</ele>
        <time>2010-05-29T15:47:39Z</time>
      </trkpt>
      <trkpt lat="44.72405" lon="-0.36261">
        <ele>56</ele>
        <time>2010-05-29T15:47:43Z</time>
      </trkpt>
      <trkpt lat="44.72409" lon="-0.36245">
        <ele>56</ele>
        <time>2010-05-29T15:47:47Z</time>
      </trkpt>
      <trkpt lat="44.72414" lon="-0.36232">
        <ele>56</ele>
        <time>2010-05-29T15:47:51Z</time>
      </trkpt>
      <trkpt lat="44.72426" lon="-0.36235">
        <ele>56</ele>
        <time>2010-05-29T15:47:55Z</time>
      </trkpt>
      <trkpt lat="44.72435" lon="-0.36241">
        <ele>57</ele>
        <time>2010-05-29T15:47:58Z</time>
      </trkpt>
      <trkpt lat="44.72445" lon="-0.36246">
        <ele>57</ele>
        <time>2010-05-29T15:48:01Z</time>
      </trkpt>
      <trkpt lat="44.72455" lon="-0.36252">
        <ele>58</ele>
        <time>2010-05-29T15:48:04Z</time>
      </trkpt>
      <trkpt lat="44.72465" lon="-0.36258">
        <ele>58</ele>
        <time>2010-05-29T15:48:07Z</time>
      </trkpt>
      <trkpt lat="44.72475" lon="-0.36262">
        <ele>58</ele>
        <time>2010-05-29T15:48:10Z</time>
      </trkpt>
      <trkpt lat="44.72486" lon="-0.36269">
        <ele>59</ele>
        <time>2010-05-29T15:48:13Z</time>
      </trkpt>
      <trkpt lat="44.72495" lon="-0.36273">
        <ele>60</ele>
        <time>2010-05-29T15:48:16Z</time>
      </trkpt>
      <trkpt lat="44.72498" lon="-0.36288">
        <ele>60</ele>
        <time>2010-05-29T15:48:20Z</time>
      </trkpt>
      <trkpt lat="44.72499" lon="-0.36305">
        <ele>60</ele>
        <time>2010-05-29T15:48:24Z</time>
      </trkpt>
      <trkpt lat="44.72496" lon="-0.36322">
        <ele>60</ele>
        <time>2010-05-29T15:48:28Z</time>
      </trkpt>
      <trkpt lat="44.72494" lon="-0.36338">
        <ele>60</ele>
        <time>2010-05-29T15:48:32Z</time>
      </trkpt>
      <trkpt lat="44.72491" lon="-0.36355">
        <ele>60</ele>
        <time>2010-05-29T15:48:36Z</time>
      </trkpt>
      <trkpt lat="44.72489" lon="-0.36371">
        <ele>61</ele>
        <time>2010-05-29T15:48:40Z</time>
      </trkpt>
      <trkpt lat="44.72486" lon="-0.36387">
        <ele>61</ele>
        <time>2010-05-29T15:48:44Z</time>
      </trkpt>
      <trkpt lat="44.72483" lon="-0.36401">
        <ele>61</ele>
        <time>2010-05-29T15:48:47Z</time>
      </trkpt>
      <trkpt lat="44.7248" lon="-0.36415">
        <ele>61</ele>
        <time>2010-05-29T15:48:50Z</time>
      </trkpt>
      <trkpt lat="44.72476" lon="-0.3643">
        <ele>61</ele>
        <time>2010-05-29T15:48:53Z</time>
      </trkpt>
      <trkpt lat="44.72472" lon="-0.36446">
        <ele>61</ele>
        <time>2010-05-29T15:48:56Z</time>
      </trkpt>
      <trkpt lat="44.72469" lon="-0.36461">
        <ele>60</ele>
        <time>2010-05-29T15:48:59Z</time>
      </trkpt>
      <trkpt lat="44.72466" lon="-0.36473">
        <ele>60</ele>
        <time>2010-05-29T15:49:02Z</time>
      </trkpt>
      <trkpt lat="44.72469" lon="-0.36486">
        <ele>60</ele>
        <time>2010-05-29T15:49:05Z</time>
      </trkpt>
      <trkpt lat="44.72479" lon="-0.3649">
        <ele>61</ele>
        <time>2010-05-29T15:49:08Z</time>
      </trkpt>
      <trkpt lat="44.72491" lon="-0.36492">
        <ele>63</ele>
        <time>2010-05-29T15:49:12Z</time>
      </trkpt>
      <trkpt lat="44.72503" lon="-0.36491">
        <ele>64</ele>
        <time>2010-05-29T15:49:16Z</time>
      </trkpt>
      <trkpt lat="44.72515" lon="-0.36489">
        <ele>66</ele>
        <time>2010-05-29T15:49:20Z</time>
      </trkpt>
      <trkpt lat="44.72524" lon="-0.36483">
        <ele>67</ele>
        <time>2010-05-29T15:49:24Z</time>
      </trkpt>
      <trkpt lat="44.72535" lon="-0.36476">
        <ele>68</ele>
        <time>2010-05-29T15:49:28Z</time>
      </trkpt>
      <trkpt lat="44.72546" lon="-0.36468">
        <ele>69</ele>
        <time>2010-05-29T15:49:32Z</time>
      </trkpt>
      <trkpt lat="44.72556" lon="-0.36461">
        <ele>70</ele>
        <time>2010-05-29T15:49:36Z</time>
      </trkpt>
      <trkpt lat="44.72567" lon="-0.36454">
        <ele>70</ele>
        <time>2010-05-29T15:49:40Z</time>
      </trkpt>
      <trkpt lat="44.72579" lon="-0.36447">
        <ele>71</ele>
        <time>2010-05-29T15:49:44Z</time>
      </trkpt>
      <trkpt lat="44.72589" lon="-0.36442">
        <ele>72</ele>
        <time>2010-05-29T15:49:48Z</time>
      </trkpt>
      <trkpt lat="44.72601" lon="-0.36438">
        <ele>73</ele>
        <time>2010-05-29T15:49:52Z</time>
      </trkpt>
      <trkpt lat="44.72612" lon="-0.36438">
        <ele>74</ele>
        <time>2010-05-29T15:49:56Z</time>
      </trkpt>
      <trkpt lat="44.72623" lon="-0.36438">
        <ele>74</ele>
        <time>2010-05-29T15:50:00Z</time>
      </trkpt>
      <trkpt lat="44.72635" lon="-0.36438">
        <ele>75</ele>
        <time>2010-05-29T15:50:04Z</time>
      </trkpt>
      <trkpt lat="44.72647" lon="-0.3644">
        <ele>76</ele>
        <time>2010-05-29T15:50:08Z</time>
      </trkpt>
      <trkpt lat="44.72656" lon="-0.36445">
        <ele>77</ele>
        <time>2010-05-29T15:50:12Z</time>
      </trkpt>
      <trkpt lat="44.72653" lon="-0.3646">
        <ele>78</ele>
        <time>2010-05-29T15:50:16Z</time>
      </trkpt>
      <trkpt lat="44.72647" lon="-0.36472">
        <ele>78</ele>
        <time>2010-05-29T15:50:19Z</time>
      </trkpt>
      <trkpt lat="44.7264" lon="-0.36483">
        <ele>78</ele>
        <time>2010-05-29T15:50:22Z</time>
      </trkpt>
      <trkpt lat="44.72636" lon="-0.36497">
        <ele>78</ele>
        <time>2010-05-29T15:50:25Z</time>
      </trkpt>
      <trkpt lat="44.72631" lon="-0.3651">
        <ele>79</ele>
        <time>2010-05-29T15:50:28Z</time>
      </trkpt>
      <trkpt lat="44.72628" lon="-0.36524">
        <ele>79</ele>
        <time>2010-05-29T15:50:31Z</time>
      </trkpt>
      <trkpt lat="44.72635" lon="-0.36537">
        <ele>80</ele>
        <time>2010-05-29T15:50:35Z</time>
      </trkpt>
      <trkpt lat="44.72645" lon="-0.36544">
        <ele>80</ele>
        <time>2010-05-29T15:50:39Z</time>
      </trkpt>
      <trkpt lat="44.72656" lon="-0.36547">
        <ele>80</ele>
        <time>2010-05-29T15:50:42Z</time>
      </trkpt>
      <trkpt lat="44.72667" lon="-0.36551">
        <ele>80</ele>
        <time>2010-05-29T15:50:45Z</time>
      </trkpt>
      <trkpt lat="44.72677" lon="-0.36555">
        <ele>79</ele>
        <time>2010-05-29T15:50:48Z</time>
      </trkpt>
      <trkpt lat="44.7269" lon="-0.36561">
        <ele>79</ele>
        <time>2010-05-29T15:50:51Z</time>
      </trkpt>
      <trkpt lat="44.72699" lon="-0.36564">
        <ele>78</ele>
        <time>2010-05-29T15:50:53Z</time>
      </trkpt>
      <trkpt lat="44.72708" lon="-0.36569">
        <ele>77</ele>
        <time>2010-05-29T15:50:55Z</time>
      </trkpt>
      <trkpt lat="44.72718" lon="-0.36573">
        <ele>77</ele>
        <time>2010-05-29T15:50:57Z</time>
      </trkpt>
      <trkpt lat="44.72729" lon="-0.36579">
        <ele>76</ele>
        <time>2010-05-29T15:50:59Z</time>
      </trkpt>
      <trkpt lat="44.7274" lon="-0.36588">
        <ele>74</ele>
        <time>2010-05-29T15:51:02Z</time>
      </trkpt>
      <trkpt lat="44.72744" lon="-0.36605">
        <ele>73</ele>
        <time>2010-05-29T15:51:05Z</time>
      </trkpt>
      <trkpt lat="44.72745" lon="-0.36623">
        <ele>73</ele>
        <time>2010-05-29T15:51:08Z</time>
      </trkpt>
      <trkpt lat="44.72747" lon="-0.36637">
        <ele>73</ele>
        <time>2010-05-29T15:51:10Z</time>
      </trkpt>
      <trkpt lat="44.72749" lon="-0.36652">
        <ele>72</ele>
        <time>2010-05-29T15:51:12Z</time>
      </trkpt>
      <trkpt lat="44.7275" lon="-0.36668">
        <ele>72</ele>
        <time>2010-05-29T15:51:14Z</time>
      </trkpt>
      <trkpt lat="44.72752" lon="-0.36685">
        <ele>71</ele>
        <time>2010-05-29T15:51:16Z</time>
      </trkpt>
      <trkpt lat="44.72752" lon="-0.36704">
        <ele>71</ele>
        <time>2010-05-29T15:51:18Z</time>
      </trkpt>
      <trkpt lat="44.72754" lon="-0.36722">
        <ele>70</ele>
        <time>2010-05-29T15:51:20Z</time>
      </trkpt>
      <trkpt lat="44.72757" lon="-0.36738">
        <ele>69</ele>
        <time>2010-05-29T15:51:22Z</time>
      </trkpt>
      <trkpt lat="44.72765" lon="-0.36748">
        <ele>67</ele>
        <time>2010-05-29T15:51:24Z</time>
      </trkpt>
      <trkpt lat="44.72775" lon="-0.36756">
        <ele>66</ele>
        <time>2010-05-29T15:51:26Z</time>
      </trkpt>
      <trkpt lat="44.72788" lon="-0.36761">
        <ele>65</ele>
        <time>2010-05-29T15:51:28Z</time>
      </trkpt>
      <trkpt lat="44.72802" lon="-0.36762">
        <ele>63</ele>
        <time>2010-05-29T15:51:30Z</time>
      </trkpt>
      <trkpt lat="44.72816" lon="-0.36764">
        <ele>62</ele>
        <time>2010-05-29T15:51:32Z</time>
      </trkpt>
      <trkpt lat="44.72827" lon="-0.36765">
        <ele>61</ele>
        <time>2010-05-29T15:51:34Z</time>
      </trkpt>
      <trkpt lat="44.72827" lon="-0.36781">
        <ele>61</ele>
        <time>2010-05-29T15:51:39Z</time>
      </trkpt>
      <trkpt lat="44.72816" lon="-0.36783">
        <ele>61</ele>
        <time>2010-05-29T15:51:42Z</time>
      </trkpt>
      <trkpt lat="44.72809" lon="-0.36793">
        <ele>62</ele>
        <time>2010-05-29T15:51:45Z</time>
      </trkpt>
      <trkpt lat="44.72811" lon="-0.36809">
        <ele>62</ele>
        <time>2010-05-29T15:51:48Z</time>
      </trkpt>
      <trkpt lat="44.72814" lon="-0.36825">
        <ele>62</ele>
        <time>2010-05-29T15:51:51Z</time>
      </trkpt>
      <trkpt lat="44.72819" lon="-0.36838">
        <ele>62</ele>
        <time>2010-05-29T15:51:54Z</time>
      </trkpt>
      <trkpt lat="44.72825" lon="-0.36852">
        <ele>63</ele>
        <time>2010-05-29T15:51:58Z</time>
      </trkpt>
      <trkpt lat="44.72834" lon="-0.36856">
        <ele>63</ele>
        <time>2010-05-29T15:52:01Z</time>
      </trkpt>
      <trkpt lat="44.72845" lon="-0.36858">
        <ele>63</ele>
        <time>2010-05-29T15:52:04Z</time>
      </trkpt>
      <trkpt lat="44.72856" lon="-0.36861">
        <ele>63</ele>
        <time>2010-05-29T15:52:07Z</time>
      </trkpt>
      <trkpt lat="44.72864" lon="-0.36868">
        <ele>63</ele>
        <time>2010-05-29T15:52:10Z</time>
      </trkpt>
      <trkpt lat="44.7287" lon="-0.36881">
        <ele>65</ele>
        <time>2010-05-29T15:52:14Z</time>
      </trkpt>
      <trkpt lat="44.72876" lon="-0.36896">
        <ele>67</ele>
        <time>2010-05-29T15:52:18Z</time>
      </trkpt>
      <trkpt lat="44.72882" lon="-0.36909">
        <ele>68</ele>
        <time>2010-05-29T15:52:22Z</time>
      </trkpt>
      <trkpt lat="44.72891" lon="-0.36913">
        <ele>67</ele>
        <time>2010-05-29T15:52:25Z</time>
      </trkpt>
      <trkpt lat="44.72904" lon="-0.36912">
        <ele>66</ele>
        <time>2010-05-29T15:52:28Z</time>
      </trkpt>
      <trkpt lat="44.72914" lon="-0.36918">
        <ele>65</ele>
        <time>2010-05-29T15:52:31Z</time>
      </trkpt>
      <trkpt lat="44.72916" lon="-0.36932">
        <ele>66</ele>
        <time>2010-05-29T15:52:34Z</time>
      </trkpt>
      <trkpt lat="44.72918" lon="-0.36949">
        <ele>67</ele>
        <time>2010-05-29T15:52:37Z</time>
      </trkpt>
      <trkpt lat="44.7292" lon="-0.36965">
        <ele>68</ele>
        <time>2010-05-29T15:52:40Z</time>
      </trkpt>
      <trkpt lat="44.72921" lon="-0.36982">
        <ele>67</ele>
        <time>2010-05-29T15:52:43Z</time>
      </trkpt>
      <trkpt lat="44.72923" lon="-0.36999">
        <ele>67</ele>
        <time>2010-05-29T15:52:46Z</time>
      </trkpt>
      <trkpt lat="44.72925" lon="-0.37012">
        <ele>66</ele>
        <time>2010-05-29T15:52:48Z</time>
      </trkpt>
      <trkpt lat="44.72925" lon="-0.3703">
        <ele>66</ele>
        <time>2010-05-29T15:52:51Z</time>
      </trkpt>
      <trkpt lat="44.72916" lon="-0.37037">
        <ele>66</ele>
        <time>2010-05-29T15:52:55Z</time>
      </trkpt>
      <trkpt lat="44.72905" lon="-0.37038">
        <ele>67</ele>
        <time>2010-05-29T15:52:58Z</time>
      </trkpt>
      <trkpt lat="44.72896" lon="-0.37038">
        <ele>68</ele>
        <time>2010-05-29T15:53:01Z</time>
      </trkpt>
      <trkpt lat="44.72886" lon="-0.37038">
        <ele>68</ele>
        <time>2010-05-29T15:53:04Z</time>
      </trkpt>
      <trkpt lat="44.72875" lon="-0.37039">
        <ele>69</ele>
        <time>2010-05-29T15:53:07Z</time>
      </trkpt>
      <trkpt lat="44.72864" lon="-0.3704">
        <ele>70</ele>
        <time>2010-05-29T15:53:10Z</time>
      </trkpt>
      <trkpt lat="44.72854" lon="-0.37041">
        <ele>70</ele>
        <time>2010-05-29T15:53:13Z</time>
      </trkpt>
      <trkpt lat="44.72843" lon="-0.37041">
        <ele>72</ele>
        <time>2010-05-29T15:53:17Z</time>
      </trkpt>
      <trkpt lat="44.72831" lon="-0.37042">
        <ele>73</ele>
        <time>2010-05-29T15:53:21Z</time>
      </trkpt>
      <trkpt lat="44.72822" lon="-0.37045">
        <ele>73</ele>
        <time>2010-05-29T15:53:25Z</time>
      </trkpt>
      <trkpt lat="44.7282" lon="-0.37059">
        <ele>73</ele>
        <time>2010-05-29T15:53:29Z</time>
      </trkpt>
      <trkpt lat="44.72824" lon="-0.37076">
        <ele>71</ele>
        <time>2010-05-29T15:53:32Z</time>
      </trkpt>
      <trkpt lat="44.72827" lon="-0.37091">
        <ele>70</ele>
        <time>2010-05-29T15:53:34Z</time>
      </trkpt>
      <trkpt lat="44.72831" lon="-0.37109">
        <ele>68</ele>
        <time>2010-05-29T15:53:36Z</time>
      </trkpt>
      <trkpt lat="44.72836" lon="-0.37131">
        <ele>65</ele>
        <time>2010-05-29T15:53:38Z</time>
      </trkpt>
      <trkpt lat="44.72839" lon="-0.37144">
        <ele>64</ele>
        <time>2010-05-29T15:53:39Z</time>
      </trkpt>
      <trkpt lat="44.72843" lon="-0.37166">
        <ele>62</ele>
        <time>2010-05-29T15:53:41Z</time>
      </trkpt>
      <trkpt lat="44.72847" lon="-0.37182">
        <ele>60</ele>
        <time>2010-05-29T15:53:43Z</time>
      </trkpt>
      <trkpt lat="44.72856" lon="-0.37189">
        <ele>59</ele>
        <time>2010-05-29T15:53:46Z</time>
      </trkpt>
      <trkpt lat="44.72866" lon="-0.37185">
        <ele>58</ele>
        <time>2010-05-29T15:53:50Z</time>
      </trkpt>
      <trkpt lat="44.72877" lon="-0.3718">
        <ele>57</ele>
        <time>2010-05-29T15:53:53Z</time>
      </trkpt>
      <trkpt lat="44.72886" lon="-0.37175">
        <ele>57</ele>
        <time>2010-05-29T15:53:56Z</time>
      </trkpt>
      <trkpt lat="44.72893" lon="-0.37162">
        <ele>57</ele>
        <time>2010-05-29T15:54:00Z</time>
      </trkpt>
      <trkpt lat="44.729" lon="-0.37152">
        <ele>57</ele>
        <time>2010-05-29T15:54:04Z</time>
      </trkpt>
      <trkpt lat="44.72909" lon="-0.37142">
        <ele>57</ele>
        <time>2010-05-29T15:54:08Z</time>
      </trkpt>
      <trkpt lat="44.7292" lon="-0.37139">
        <ele>56</ele>
        <time>2010-05-29T15:54:11Z</time>
      </trkpt>
      <trkpt lat="44.72929" lon="-0.3713">
        <ele>56</ele>
        <time>2010-05-29T15:54:15Z</time>
      </trkpt>
      <trkpt lat="44.72939" lon="-0.37125">
        <ele>56</ele>
        <time>2010-05-29T15:54:20Z</time>
      </trkpt>
      <trkpt lat="44.72948" lon="-0.37121">
        <ele>56</ele>
        <time>2010-05-29T15:54:22Z</time>
      </trkpt>
      <trkpt lat="44.72961" lon="-0.37118">
        <ele>55</ele>
        <time>2010-05-29T15:54:25Z</time>
      </trkpt>
      <trkpt lat="44.72973" lon="-0.37116">
        <ele>54</ele>
        <time>2010-05-29T15:54:27Z</time>
      </trkpt>
      <trkpt lat="44.72985" lon="-0.37114">
        <ele>53</ele>
        <time>2010-05-29T15:54:29Z</time>
      </trkpt>
      <trkpt lat="44.72997" lon="-0.37109">
        <ele>53</ele>
        <time>2010-05-29T15:54:31Z</time>
      </trkpt>
      <trkpt lat="44.73008" lon="-0.37106">
        <ele>53</ele>
        <time>2010-05-29T15:54:33Z</time>
      </trkpt>
      <trkpt lat="44.73018" lon="-0.37103">
        <ele>53</ele>
        <time>2010-05-29T15:54:35Z</time>
      </trkpt>
      <trkpt lat="44.73027" lon="-0.371">
        <ele>53</ele>
        <time>2010-05-29T15:54:37Z</time>
      </trkpt>
      <trkpt lat="44.73039" lon="-0.37098">
        <ele>52</ele>
        <time>2010-05-29T15:54:40Z</time>
      </trkpt>
      <trkpt lat="44.73051" lon="-0.37096">
        <ele>50</ele>
        <time>2010-05-29T15:54:43Z</time>
      </trkpt>
      <trkpt lat="44.73061" lon="-0.37096">
        <ele>48</ele>
        <time>2010-05-29T15:54:45Z</time>
      </trkpt>
      <trkpt lat="44.73071" lon="-0.37096">
        <ele>46</ele>
        <time>2010-05-29T15:54:47Z</time>
      </trkpt>
      <trkpt lat="44.73082" lon="-0.37095">
        <ele>45</ele>
        <time>2010-05-29T15:54:49Z</time>
      </trkpt>
      <trkpt lat="44.73095" lon="-0.37099">
        <ele>42</ele>
        <time>2010-05-29T15:54:51Z</time>
      </trkpt>
      <trkpt lat="44.73105" lon="-0.37102">
        <ele>40</ele>
        <time>2010-05-29T15:54:53Z</time>
      </trkpt>
      <trkpt lat="44.73115" lon="-0.37095">
        <ele>38</ele>
        <time>2010-05-29T15:54:56Z</time>
      </trkpt>
      <trkpt lat="44.73117" lon="-0.37078">
        <ele>38</ele>
        <time>2010-05-29T15:54:59Z</time>
      </trkpt>
      <trkpt lat="44.73119" lon="-0.37064">
        <ele>38</ele>
        <time>2010-05-29T15:55:02Z</time>
      </trkpt>
      <trkpt lat="44.73119" lon="-0.3705">
        <ele>39</ele>
        <time>2010-05-29T15:55:05Z</time>
      </trkpt>
      <trkpt lat="44.73119" lon="-0.37036">
        <ele>39</ele>
        <time>2010-05-29T15:55:08Z</time>
      </trkpt>
      <trkpt lat="44.73119" lon="-0.37022">
        <ele>39</ele>
        <time>2010-05-29T15:55:12Z</time>
      </trkpt>
      <trkpt lat="44.73116" lon="-0.37009">
        <ele>40</ele>
        <time>2010-05-29T15:55:16Z</time>
      </trkpt>
      <trkpt lat="44.73113" lon="-0.36992">
        <ele>41</ele>
        <time>2010-05-29T15:55:20Z</time>
      </trkpt>
      <trkpt lat="44.7311" lon="-0.36977">
        <ele>41</ele>
        <time>2010-05-29T15:55:23Z</time>
      </trkpt>
      <trkpt lat="44.73104" lon="-0.36963">
        <ele>41</ele>
        <time>2010-05-29T15:55:26Z</time>
      </trkpt>
      <trkpt lat="44.73096" lon="-0.36953">
        <ele>42</ele>
        <time>2010-05-29T15:55:30Z</time>
      </trkpt>
      <trkpt lat="44.7309" lon="-0.36942">
        <ele>42</ele>
        <time>2010-05-29T15:55:34Z</time>
      </trkpt>
      <trkpt lat="44.73089" lon="-0.36925">
        <ele>41</ele>
        <time>2010-05-29T15:55:39Z</time>
      </trkpt>
      <trkpt lat="44.73087" lon="-0.3691">
        <ele>40</ele>
        <time>2010-05-29T15:55:44Z</time>
      </trkpt>
      <trkpt lat="44.73086" lon="-0.36897">
        <ele>42</ele>
        <time>2010-05-29T15:55:51Z</time>
      </trkpt>
      <trkpt lat="44.73087" lon="-0.36882">
        <ele>43</ele>
        <time>2010-05-29T15:56:01Z</time>
      </trkpt>
      <trkpt lat="44.73089" lon="-0.36869">
        <ele>45</ele>
        <time>2010-05-29T15:56:12Z</time>
      </trkpt>
      <trkpt lat="44.73092" lon="-0.36855">
        <ele>46</ele>
        <time>2010-05-29T15:56:19Z</time>
      </trkpt>
      <trkpt lat="44.73092" lon="-0.3684">
        <ele>48</ele>
        <time>2010-05-29T15:56:26Z</time>
      </trkpt>
      <trkpt lat="44.73085" lon="-0.36831">
        <ele>49</ele>
        <time>2010-05-29T15:56:32Z</time>
      </trkpt>
      <trkpt lat="44.73076" lon="-0.3683">
        <ele>49</ele>
        <time>2010-05-29T15:56:37Z</time>
      </trkpt>
      <trkpt lat="44.73066" lon="-0.36835">
        <ele>48</ele>
        <time>2010-05-29T15:56:41Z</time>
      </trkpt>
      <trkpt lat="44.7305" lon="-0.36839">
        <ele>48</ele>
        <time>2010-05-29T15:56:50Z</time>
      </trkpt>
      <trkpt lat="44.73039" lon="-0.36835">
        <ele>48</ele>
        <time>2010-05-29T15:56:53Z</time>
      </trkpt>
      <trkpt lat="44.73028" lon="-0.3684">
        <ele>47</ele>
        <time>2010-05-29T15:56:57Z</time>
      </trkpt>
      <trkpt lat="44.73018" lon="-0.36844">
        <ele>46</ele>
        <time>2010-05-29T15:57:02Z</time>
      </trkpt>
      <trkpt lat="44.73009" lon="-0.36841">
        <ele>46</ele>
        <time>2010-05-29T15:57:04Z</time>
      </trkpt>
      <trkpt lat="44.72999" lon="-0.36836">
        <ele>47</ele>
        <time>2010-05-29T15:57:08Z</time>
      </trkpt>
      <trkpt lat="44.7299" lon="-0.36833">
        <ele>47</ele>
        <time>2010-05-29T15:57:12Z</time>
      </trkpt>
      <trkpt lat="44.72983" lon="-0.36824">
        <ele>48</ele>
        <time>2010-05-29T15:57:20Z</time>
      </trkpt>
      <trkpt lat="44.72973" lon="-0.36816">
        <ele>49</ele>
        <time>2010-05-29T15:57:25Z</time>
      </trkpt>
      <trkpt lat="44.72964" lon="-0.36809">
        <ele>49</ele>
        <time>2010-05-29T15:57:29Z</time>
      </trkpt>
      <trkpt lat="44.72956" lon="-0.36798">
        <ele>50</ele>
        <time>2010-05-29T15:57:33Z</time>
      </trkpt>
      <trkpt lat="44.72949" lon="-0.36787">
        <ele>50</ele>
        <time>2010-05-29T15:57:38Z</time>
      </trkpt>
      <trkpt lat="44.72945" lon="-0.36771">
        <ele>52</ele>
        <time>2010-05-29T15:57:43Z</time>
      </trkpt>
      <trkpt lat="44.72943" lon="-0.36757">
        <ele>53</ele>
        <time>2010-05-29T15:57:48Z</time>
      </trkpt>
      <trkpt lat="44.72939" lon="-0.36744">
        <ele>55</ele>
        <time>2010-05-29T15:57:53Z</time>
      </trkpt>
      <trkpt lat="44.72945" lon="-0.36733">
        <ele>56</ele>
        <time>2010-05-29T15:58:03Z</time>
      </trkpt>
      <trkpt lat="44.72955" lon="-0.36733">
        <ele>56</ele>
        <time>2010-05-29T15:58:08Z</time>
      </trkpt>
      <trkpt lat="44.72966" lon="-0.36726">
        <ele>58</ele>
        <time>2010-05-29T15:58:14Z</time>
      </trkpt>
      <trkpt lat="44.72977" lon="-0.36724">
        <ele>59</ele>
        <time>2010-05-29T15:58:18Z</time>
      </trkpt>
      <trkpt lat="44.72987" lon="-0.36722">
        <ele>59</ele>
        <time>2010-05-29T15:58:22Z</time>
      </trkpt>
      <trkpt lat="44.72998" lon="-0.36725">
        <ele>60</ele>
        <time>2010-05-29T15:58:25Z</time>
      </trkpt>
      <trkpt lat="44.73013" lon="-0.36732">
        <ele>60</ele>
        <time>2010-05-29T15:58:30Z</time>
      </trkpt>
      <trkpt lat="44.73022" lon="-0.36737">
        <ele>60</ele>
        <time>2010-05-29T15:58:33Z</time>
      </trkpt>
      <trkpt lat="44.73032" lon="-0.36742">
        <ele>60</ele>
        <time>2010-05-29T15:58:36Z</time>
      </trkpt>
      <trkpt lat="44.73043" lon="-0.36747">
        <ele>60</ele>
        <time>2010-05-29T15:58:39Z</time>
      </trkpt>
      <trkpt lat="44.73053" lon="-0.36746">
        <ele>60</ele>
        <time>2010-05-29T15:58:42Z</time>
      </trkpt>
      <trkpt lat="44.73064" lon="-0.36739">
        <ele>60</ele>
        <time>2010-05-29T15:58:45Z</time>
      </trkpt>
      <trkpt lat="44.73073" lon="-0.36736">
        <ele>60</ele>
        <time>2010-05-29T15:58:50Z</time>
      </trkpt>
      <trkpt lat="44.73085" lon="-0.36736">
        <ele>59</ele>
        <time>2010-05-29T15:58:53Z</time>
      </trkpt>
      <trkpt lat="44.73091" lon="-0.36725">
        <ele>60</ele>
        <time>2010-05-29T15:58:58Z</time>
      </trkpt>
      <trkpt lat="44.73089" lon="-0.36712">
        <ele>61</ele>
        <time>2010-05-29T15:59:02Z</time>
      </trkpt>
      <trkpt lat="44.73087" lon="-0.36699">
        <ele>62</ele>
        <time>2010-05-29T15:59:08Z</time>
      </trkpt>
      <trkpt lat="44.7308" lon="-0.36691">
        <ele>64</ele>
        <time>2010-05-29T15:59:15Z</time>
      </trkpt>
      <trkpt lat="44.73078" lon="-0.36677">
        <ele>65</ele>
        <time>2010-05-29T15:59:22Z</time>
      </trkpt>
      <trkpt lat="44.73079" lon="-0.36663">
        <ele>66</ele>
        <time>2010-05-29T15:59:27Z</time>
      </trkpt>
      <trkpt lat="44.73089" lon="-0.36656">
        <ele>66</ele>
        <time>2010-05-29T15:59:32Z</time>
      </trkpt>
      <trkpt lat="44.73099" lon="-0.36649">
        <ele>66</ele>
        <time>2010-05-29T15:59:35Z</time>
      </trkpt>
      <trkpt lat="44.73108" lon="-0.36651">
        <ele>64</ele>
        <time>2010-05-29T15:59:39Z</time>
      </trkpt>
      <trkpt lat="44.73115" lon="-0.36641">
        <ele>65</ele>
        <time>2010-05-29T15:59:45Z</time>
      </trkpt>
      <trkpt lat="44.73123" lon="-0.36631">
        <ele>65</ele>
        <time>2010-05-29T15:59:50Z</time>
      </trkpt>
      <trkpt lat="44.73133" lon="-0.36628">
        <ele>64</ele>
        <time>2010-05-29T15:59:55Z</time>
      </trkpt>
      <trkpt lat="44.73144" lon="-0.36621">
        <ele>64</ele>
        <time>2010-05-29T15:59:59Z</time>
      </trkpt>
      <trkpt lat="44.73153" lon="-0.36614">
        <ele>63</ele>
        <time>2010-05-29T16:00:02Z</time>
      </trkpt>
      <trkpt lat="44.73159" lon="-0.36603">
        <ele>64</ele>
        <time>2010-05-29T16:00:07Z</time>
      </trkpt>
      <trkpt lat="44.73168" lon="-0.36596">
        <ele>63</ele>
        <time>2010-05-29T16:00:15Z</time>
      </trkpt>
      <trkpt lat="44.73169" lon="-0.36581">
        <ele>65</ele>
        <time>2010-05-29T16:00:24Z</time>
      </trkpt>
      <trkpt lat="44.7317" lon="-0.36567">
        <ele>67</ele>
        <time>2010-05-29T16:00:31Z</time>
      </trkpt>
      <trkpt lat="44.73167" lon="-0.36554">
        <ele>70</ele>
        <time>2010-05-29T16:00:38Z</time>
      </trkpt>
      <trkpt lat="44.73172" lon="-0.36541">
        <ele>71</ele>
        <time>2010-05-29T16:00:45Z</time>
      </trkpt>
      <trkpt lat="44.73184" lon="-0.3654">
        <ele>69</ele>
        <time>2010-05-29T16:00:51Z</time>
      </trkpt>
      <trkpt lat="44.73193" lon="-0.36533">
        <ele>68</ele>
        <time>2010-05-29T16:00:56Z</time>
      </trkpt>
      <trkpt lat="44.73196" lon="-0.3652">
        <ele>69</ele>
        <time>2010-05-29T16:01:02Z</time>
      </trkpt>
      <trkpt lat="44.73193" lon="-0.36508">
        <ele>71</ele>
        <time>2010-05-29T16:01:09Z</time>
      </trkpt>
      <trkpt lat="44.73198" lon="-0.36495">
        <ele>71</ele>
        <time>2010-05-29T16:01:15Z</time>
      </trkpt>
      <trkpt lat="44.73192" lon="-0.36483">
        <ele>75</ele>
        <time>2010-05-29T16:01:22Z</time>
      </trkpt>
      <trkpt lat="44.73183" lon="-0.36477">
        <ele>78</ele>
        <time>2010-05-29T16:01:28Z</time>
      </trkpt>
      <trkpt lat="44.73172" lon="-0.36474">
        <ele>79</ele>
        <time>2010-05-29T16:01:37Z</time>
      </trkpt>
      <trkpt lat="44.73163" lon="-0.36478">
        <ele>80</ele>
        <time>2010-05-29T16:01:43Z</time>
      </trkpt>
      <trkpt lat="44.73154" lon="-0.36482">
        <ele>81</ele>
        <time>2010-05-29T16:01:47Z</time>
      </trkpt>
      <trkpt lat="44.73144" lon="-0.36487">
        <ele>82</ele>
        <time>2010-05-29T16:01:51Z</time>
      </trkpt>
      <trkpt lat="44.73133" lon="-0.36492">
        <ele>82</ele>
        <time>2010-05-29T16:01:57Z</time>
      </trkpt>
      <trkpt lat="44.73124" lon="-0.36497">
        <ele>82</ele>
        <time>2010-05-29T16:02:02Z</time>
      </trkpt>
      <trkpt lat="44.73115" lon="-0.36499">
        <ele>82</ele>
        <time>2010-05-29T16:02:08Z</time>
      </trkpt>
      <trkpt lat="44.73105" lon="-0.36499">
        <ele>83</ele>
        <time>2010-05-29T16:02:19Z</time>
      </trkpt>
      <trkpt lat="44.73097" lon="-0.36491">
        <ele>84</ele>
        <time>2010-05-29T16:02:27Z</time>
      </trkpt>
      <trkpt lat="44.7309" lon="-0.36481">
        <ele>86</ele>
        <time>2010-05-29T16:02:33Z</time>
      </trkpt>
      <trkpt lat="44.73092" lon="-0.36467">
        <ele>87</ele>
        <time>2010-05-29T16:02:39Z</time>
      </trkpt>
      <trkpt lat="44.73094" lon="-0.36454">
        <ele>88</ele>
        <time>2010-05-29T16:02:45Z</time>
      </trkpt>
      <trkpt lat="44.73099" lon="-0.36443">
        <ele>88</ele>
        <time>2010-05-29T16:02:50Z</time>
      </trkpt>
      <trkpt lat="44.73106" lon="-0.36432">
        <ele>88</ele>
        <time>2010-05-29T16:02:54Z</time>
      </trkpt>
      <trkpt lat="44.73112" lon="-0.36421">
        <ele>88</ele>
        <time>2010-05-29T16:02:59Z</time>
      </trkpt>
      <trkpt lat="44.7311" lon="-0.36407">
        <ele>88</ele>
        <time>2010-05-29T16:03:04Z</time>
      </trkpt>
      <trkpt lat="44.73108" lon="-0.36392">
        <ele>89</ele>
        <time>2010-05-29T16:03:09Z</time>
      </trkpt>
      <trkpt lat="44.73111" lon="-0.36379">
        <ele>89</ele>
        <time>2010-05-29T16:03:13Z</time>
      </trkpt>
      <trkpt lat="44.73113" lon="-0.36365">
        <ele>89</ele>
        <time>2010-05-29T16:03:17Z</time>
      </trkpt>
      <trkpt lat="44.73112" lon="-0.36351">
        <ele>89</ele>
        <time>2010-05-29T16:03:20Z</time>
      </trkpt>
      <trkpt lat="44.73111" lon="-0.36338">
        <ele>89</ele>
        <time>2010-05-29T16:03:23Z</time>
      </trkpt>
      <trkpt lat="44.73109" lon="-0.36324">
        <ele>89</ele>
        <time>2010-05-29T16:03:26Z</time>
      </trkpt>
      <trkpt lat="44.73108" lon="-0.36311">
        <ele>89</ele>
        <time>2010-05-29T16:03:29Z</time>
      </trkpt>
      <trkpt lat="44.73107" lon="-0.36297">
        <ele>89</ele>
        <time>2010-05-29T16:03:32Z</time>
      </trkpt>
      <trkpt lat="44.73108" lon="-0.3628">
        <ele>89</ele>
        <time>2010-05-29T16:03:36Z</time>
      </trkpt>
      <trkpt lat="44.73112" lon="-0.36265">
        <ele>89</ele>
        <time>2010-05-29T16:03:40Z</time>
      </trkpt>
      <trkpt lat="44.73119" lon="-0.36256">
        <ele>88</ele>
        <time>2010-05-29T16:03:43Z</time>
      </trkpt>
      <trkpt lat="44.73128" lon="-0.36247">
        <ele>88</ele>
        <time>2010-05-29T16:03:46Z</time>
      </trkpt>
      <trkpt lat="44.7314" lon="-0.36241">
        <ele>87</ele>
        <time>2010-05-29T16:03:49Z</time>
      </trkpt>
      <trkpt lat="44.73153" lon="-0.36239">
        <ele>86</ele>
        <time>2010-05-29T16:03:52Z</time>
      </trkpt>
      <trkpt lat="44.73164" lon="-0.36235">
        <ele>85</ele>
        <time>2010-05-29T16:03:55Z</time>
      </trkpt>
      <trkpt lat="44.73177" lon="-0.36233">
        <ele>84</ele>
        <time>2010-05-29T16:03:58Z</time>
      </trkpt>
      <trkpt lat="44.7319" lon="-0.36229">
        <ele>84</ele>
        <time>2010-05-29T16:04:01Z</time>
      </trkpt>
      <trkpt lat="44.73201" lon="-0.3622">
        <ele>84</ele>
        <time>2010-05-29T16:04:04Z</time>
      </trkpt>
      <trkpt lat="44.73206" lon="-0.36207">
        <ele>84</ele>
        <time>2010-05-29T16:04:07Z</time>
      </trkpt>
      <trkpt lat="44.73212" lon="-0.36194">
        <ele>84</ele>
        <time>2010-05-29T16:04:10Z</time>
      </trkpt>
      <trkpt lat="44.73219" lon="-0.36184">
        <ele>85</ele>
        <time>2010-05-29T16:04:13Z</time>
      </trkpt>
      <trkpt lat="44.73227" lon="-0.36176">
        <ele>85</ele>
        <time>2010-05-29T16:04:16Z</time>
      </trkpt>
      <trkpt lat="44.73236" lon="-0.36167">
        <ele>85</ele>
        <time>2010-05-29T16:04:19Z</time>
      </trkpt>
      <trkpt lat="44.73247" lon="-0.36161">
        <ele>84</ele>
        <time>2010-05-29T16:04:22Z</time>
      </trkpt>
      <trkpt lat="44.73257" lon="-0.36159">
        <ele>83</ele>
        <time>2010-05-29T16:04:24Z</time>
      </trkpt>
      <trkpt lat="44.73267" lon="-0.36157">
        <ele>82</ele>
        <time>2010-05-29T16:04:26Z</time>
      </trkpt>
      <trkpt lat="44.7328" lon="-0.36153">
        <ele>81</ele>
        <time>2010-05-29T16:04:29Z</time>
      </trkpt>
      <trkpt lat="44.73294" lon="-0.36149">
        <ele>80</ele>
        <time>2010-05-29T16:04:32Z</time>
      </trkpt>
      <trkpt lat="44.73303" lon="-0.36146">
        <ele>81</ele>
        <time>2010-05-29T16:04:34Z</time>
      </trkpt>
      <trkpt lat="44.73313" lon="-0.36145">
        <ele>81</ele>
        <time>2010-05-29T16:04:36Z</time>
      </trkpt>
      <trkpt lat="44.73326" lon="-0.36141">
        <ele>81</ele>
        <time>2010-05-29T16:04:39Z</time>
      </trkpt>
      <trkpt lat="44.73363" lon="-0.36125">
        <ele>86</ele>
        <time>2010-05-29T16:04:42Z</time>
      </trkpt>
    </trkseg>
  </trk>
</gpx>